Time;durP1;ratioP1;P1;durP2;ratioP2;P2;SDS_P1;SDS_P2;PMS_P1;PMS_P2;Temp;Humidity;BMP_temperature;BMP_pressure;BME280_temperature;BME280_humidity;BME280_pressure;Samples;Min_cycle;Max_cycle;Signal;HPM_P1;HPM_P2
2022/10/26 00:00:27;;;;;;;13.18;10.48;;;9.50;99.90;;;;;;5088684;28;20036;-49
2022/10/26 00:02:54;;;;;;;15.48;10.15;;;9.50;99.90;;;;;;5086655;28;20066;-48
2022/10/26 00:05:22;;;;;;;14.27;10.50;;;9.40;99.90;;;;;;5085346;28;20044;-48
2022/10/26 00:07:48;;;;;;;18.60;11.18;;;9.40;99.90;;;;;;5090245;28;20095;-49
2022/10/26 00:10:14;;;;;;;12.10;10.32;;;9.40;99.90;;;;;;5088241;28;20070;-48
2022/10/26 00:12:40;;;;;;;15.90;11.35;;;9.40;99.90;;;;;;5088321;28;20488;-48
2022/10/26 00:15:06;;;;;;;16.35;11.35;;;9.40;99.90;;;;;;5089934;28;21349;-53
2022/10/26 00:17:32;;;;;;;14.35;11.15;;;9.40;99.90;;;;;;5090075;28;20051;-49
2022/10/26 00:19:59;;;;;;;16.85;11.63;;;9.30;99.90;;;;;;5091147;28;20035;-51
2022/10/26 00:22:25;;;;;;;16.23;13.25;;;9.30;99.90;;;;;;5088509;28;20170;-51
2022/10/26 00:24:51;;;;;;;20.00;14.40;;;9.30;99.90;;;;;;5088735;28;20119;-53
2022/10/26 00:27:17;;;;;;;15.95;13.35;;;9.20;99.90;;;;;;5089505;28;20196;-51
2022/10/26 00:29:42;;;;;;;19.80;14.32;;;9.40;99.90;;;;;;5089773;28;20052;-51
2022/10/26 00:32:08;;;;;;;14.90;13.32;;;9.30;99.90;;;;;;5086943;28;20165;-50
2022/10/26 00:34:33;;;;;;;17.83;13.30;;;9.40;99.90;;;;;;5085571;28;20130;-49
2022/10/26 00:36:59;;;;;;;19.67;14.07;;;9.30;99.90;;;;;;5086548;28;20035;-48
2022/10/26 00:39:25;;;;;;;17.75;14.60;;;9.20;99.90;;;;;;5089825;28;20040;-51
2022/10/26 00:41:50;;;;;;;18.42;14.02;;;9.30;99.90;;;;;;5087129;28;20044;-48
2022/10/26 00:44:53;;;;;;;18.63;14.40;;;9.10;99.90;;;;;;5087505;28;20400;-50
2022/10/26 00:47:41;;;;;;;15.52;12.75;;;9.40;99.90;;;;;;5087211;28;20391;-48
2022/10/26 00:50:15;;;;;;;20.27;14.45;;;9.20;99.90;;;;;;5086585;28;20047;-49
2022/10/26 00:52:41;;;;;;;17.15;13.95;;;9.10;99.90;;;;;;5090083;28;20549;-49
2022/10/26 00:55:07;;;;;;;23.30;15.80;;;9.10;99.90;;;;;;5071363;28;20044;-48
2022/10/26 00:57:36;;;;;;;20.95;14.73;;;9.20;99.90;;;;;;5087962;28;20082;-51
2022/10/26 01:00:04;;;;;;;22.30;15.90;;;9.10;99.90;;;;;;5086040;28;20044;-49
2022/10/26 01:02:30;;;;;;;20.60;14.32;;;9.10;99.90;;;;;;5086910;28;20051;-48
2022/10/26 01:04:56;;;;;;;17.63;14.35;;;9.00;99.90;;;;;;5086580;28;20040;-50
2022/10/26 01:07:23;;;;;;;22.80;16.77;;;9.00;99.90;;;;;;5087622;28;20115;-49
2022/10/26 01:09:49;;;;;;;19.90;14.50;;;9.00;99.90;;;;;;5085430;28;20063;-48
2022/10/26 01:12:15;;;;;;;20.73;15.43;;;9.00;99.90;;;;;;5087154;28;20492;-49
2022/10/26 01:14:41;;;;;;;19.30;14.15;;;9.00;99.90;;;;;;5087882;28;20067;-48
2022/10/26 01:17:15;;;;;;;21.98;15.35;;;9.00;99.90;;;;;;5082249;28;20051;-50
2022/10/26 01:19:59;;;;;;;19.80;15.52;;;9.00;99.90;;;;;;5089050;28;20127;-49
2022/10/26 01:22:37;;;;;;;17.80;14.45;;;9.00;99.90;;;;;;5086478;28;20435;-49
2022/10/26 01:25:20;;;;;;;20.73;14.50;;;9.00;99.90;;;;;;5089106;28;20047;-48
2022/10/26 01:27:49;;;;;;;21.63;15.18;;;8.90;99.90;;;;;;5089561;28;20051;-48
2022/10/26 01:30:18;;;;;;;16.73;13.82;;;;;;;;;;5084725;28;20381;-48
2022/10/26 01:33:14;;;;;;;19.17;16.02;;;8.80;99.90;;;;;;5086426;28;20036;-50
2022/10/26 01:36:07;;;;;;;23.65;15.82;;;8.80;99.90;;;;;;5087424;28;20073;-49
2022/10/26 01:38:51;;;;;;;22.58;15.48;;;8.80;99.90;;;;;;5086417;28;20511;-48
2022/10/26 01:41:36;;;;;;;18.05;14.35;;;8.70;99.90;;;;;;5085351;28;20161;-48
2022/10/26 01:44:09;;;;;;;19.73;15.80;;;8.80;99.90;;;;;;5085374;28;20484;-49
2022/10/26 01:46:42;;;;;;;17.55;15.48;;;8.80;99.90;;;;;;5083464;28;20123;-48
2022/10/26 01:49:10;;;;;;;22.02;15.57;;;8.80;99.90;;;;;;5087066;28;20032;-49
2022/10/26 01:51:39;;;;;;;20.17;16.10;;;8.80;99.90;;;;;;5084690;28;20039;-49
2022/10/26 01:54:05;;;;;;;23.23;16.05;;;8.80;99.90;;;;;;5089327;28;20040;-49
2022/10/26 01:56:35;;;;;;;22.13;17.77;;;8.80;99.90;;;;;;5087834;28;20089;-49
2022/10/26 01:59:25;;;;;;;23.05;16.88;;;8.80;99.90;;;;;;5087842;28;20040;-49
2022/10/26 02:02:08;;;;;;;20.02;15.98;;;8.70;99.90;;;;;;5086251;28;20051;-49
2022/10/26 02:05:15;;;;;;;25.15;16.27;;;8.70;99.90;;;;;;5086658;28;20446;-48
2022/10/26 02:07:57;;;;;;;20.10;16.17;;;8.70;99.90;;;;;;5024751;28;20057;-49
2022/10/26 02:10:40;;;;;;;22.25;17.77;;;8.70;99.90;;;;;;5024673;28;20457;-49
2022/10/26 02:13:15;;;;;;;20.90;16.85;;;8.70;99.90;;;;;;5023951;28;20042;-48
2022/10/26 02:15:45;;;;;;;23.45;16.90;;;8.70;99.90;;;;;;5025169;28;20099;-48
2022/10/26 02:18:23;;;;;;;23.20;17.88;;;8.70;99.90;;;;;;5023480;28;20062;-48
2022/10/26 02:20:54;;;;;;;22.42;16.00;;;8.70;99.90;;;;;;5024872;28;20112;-48
2022/10/26 02:23:23;;;;;;;29.02;19.25;;;8.70;99.90;;;;;;5024565;28;20100;-48
2022/10/26 02:25:54;;;;;;;26.90;20.08;;;8.80;99.90;;;;;;5025309;28;20054;-48
2022/10/26 02:28:24;;;;;;;25.80;20.05;;;8.80;99.90;;;;;;5009649;28;20418;-49
2022/10/26 02:30:55;;;;;;;22.98;18.27;;;8.80;99.90;;;;;;5025886;28;20057;-48
2022/10/26 02:33:22;;;;;;;25.30;19.13;;;8.80;99.90;;;;;;5009676;28;20490;-48
2022/10/26 02:35:52;;;;;;;26.75;19.90;;;8.80;99.90;;;;;;5006432;28;20494;-48
2022/10/26 02:38:19;;;;;;;24.98;19.58;;;8.90;99.90;;;;;;5023372;28;20049;-49
2022/10/26 02:40:48;;;;;;;22.30;17.67;;;8.80;99.90;;;;;;5024510;28;20169;-48
2022/10/26 02:43:20;;;;;;;29.83;21.65;;;8.90;99.90;;;;;;5010335;28;20045;-48
2022/10/26 02:45:52;;;;;;;27.63;20.73;;;8.90;99.90;;;;;;5084822;28;20036;-48
2022/10/26 02:48:18;;;;;;;26.50;20.33;;;8.90;99.90;;;;;;5085707;28;20476;-48
2022/10/26 02:50:59;;;;;;;23.63;19.55;;;8.90;99.90;;;;;;5089793;28;20040;-48
2022/10/26 02:53:36;;;;;;;29.55;20.67;;;8.90;99.90;;;;;;5091513;28;20044;-48
2022/10/26 02:56:15;;;;;;;25.33;20.63;;;8.90;99.90;;;;;;5089455;28;20043;-52
2022/10/26 02:58:45;;;;;;;26.83;20.17;;;8.90;99.90;;;;;;5089866;28;20044;-50
2022/10/26 03:01:12;;;;;;;27.77;20.10;;;8.90;99.90;;;;;;5087857;28;20468;-52
2022/10/26 03:03:38;;;;;;;26.95;20.10;;;9.00;99.90;;;;;;5089023;28;20044;-50
2022/10/26 03:06:03;;;;;;;26.60;20.45;;;9.00;99.90;;;;;;5090138;28;20032;-50
2022/10/26 03:08:29;;;;;;;29.13;21.38;;;9.00;99.90;;;;;;5088295;28;20052;-49
2022/10/26 03:10:55;;;;;;;33.35;22.40;;;9.10;99.90;;;;;;5086152;28;20040;-48
2022/10/26 03:13:20;;;;;;;31.02;21.65;;;9.10;99.90;;;;;;5089751;28;20048;-51
2022/10/26 03:15:46;;;;;;;28.73;20.25;;;9.10;99.90;;;;;;5090357;28;20048;-48
2022/10/26 03:18:11;;;;;;;28.75;19.45;;;9.10;99.90;;;;;;5085361;28;20067;-50
2022/10/26 03:20:37;;;;;;;26.55;20.88;;;9.10;99.90;;;;;;5088258;28;20041;-53
2022/10/26 03:23:03;;;;;;;31.85;21.73;;;9.20;99.90;;;;;;5088572;28;20042;-49
2022/10/26 03:25:28;;;;;;;27.40;21.38;;;9.10;99.90;;;;;;5089236;28;20044;-49
2022/10/26 03:28:02;;;;;;;25.73;20.73;;;9.10;99.90;;;;;;5089271;28;20047;-48
2022/10/26 03:30:28;;;;;;;29.23;22.15;;;9.10;99.90;;;;;;5088055;28;20392;-49
2022/10/26 03:32:54;;;;;;;29.80;21.52;;;9.20;99.90;;;;;;5090280;28;20629;-50
2022/10/26 03:35:19;;;;;;;31.05;20.75;;;9.10;99.90;;;;;;5089713;28;20115;-49
2022/10/26 03:37:45;;;;;;;26.13;20.08;;;9.10;99.90;;;;;;5084640;28;20058;-48
2022/10/26 03:40:11;;;;;;;25.85;20.40;;;9.00;99.90;;;;;;5087634;28;20044;-49
2022/10/26 03:42:37;;;;;;;24.08;18.42;;;9.00;99.90;;;;;;5089900;28;20342;-49
2022/10/26 03:45:04;;;;;;;24.98;19.42;;;9.10;99.90;;;;;;5088064;28;20072;-49
2022/10/26 03:47:30;;;;;;;25.45;19.90;;;9.00;99.90;;;;;;5088514;28;20036;-49
2022/10/26 03:49:55;;;;;;;26.67;19.15;;;9.10;99.90;;;;;;5088846;28;20393;-51
2022/10/26 03:52:23;;;;;;;31.80;20.70;;;9.00;99.90;;;;;;5090562;28;20064;-49
2022/10/26 03:54:48;;;;;;;27.35;20.20;;;9.00;99.90;;;;;;5088468;28;20542;-48
2022/10/26 03:57:14;;;;;;;24.35;18.92;;;9.00;99.90;;;;;;5090301;28;20079;-48
2022/10/26 03:59:40;;;;;;;23.20;18.38;;;9.00;99.90;;;;;;5088877;28;20035;-48
2022/10/26 04:02:05;;;;;;;23.95;19.08;;;9.00;99.90;;;;;;5083081;28;20047;-50
2022/10/26 04:04:31;;;;;;;25.85;17.55;;;9.00;99.90;;;;;;5089020;28;20090;-49
2022/10/26 04:06:57;;;;;;;23.27;18.80;;;9.00;99.90;;;;;;5088337;28;20040;-48
2022/10/26 04:09:22;;;;;;;27.10;19.70;;;9.00;99.90;;;;;;5084955;28;20056;-52
2022/10/26 04:11:48;;;;;;;23.60;19.17;;;9.10;99.90;;;;;;5088309;28;20040;-50
2022/10/26 04:14:14;;;;;;;29.40;19.42;;;9.10;99.90;;;;;;5088915;28;20503;-50
2022/10/26 04:16:39;;;;;;;29.40;19.30;;;9.10;99.90;;;;;;5087593;28;20158;-49
2022/10/26 04:19:05;;;;;;;21.20;18.90;;;9.10;99.90;;;;;;5088024;28;20084;-49
2022/10/26 04:21:34;;;;;;;26.13;18.98;;;9.00;99.90;;;;;;5083694;28;20055;-50
2022/10/26 04:24:00;;;;;;;27.23;19.83;;;9.00;99.90;;;;;;5085510;28;20039;-52
2022/10/26 04:26:26;;;;;;;23.30;19.48;;;9.00;99.90;;;;;;5087280;28;20131;-50
2022/10/26 04:28:52;;;;;;;21.27;18.55;;;9.00;99.90;;;;;;5089716;28;20599;-48
2022/10/26 04:31:17;;;;;;;25.15;18.70;;;9.00;99.90;;;;;;5086553;28;20119;-49
2022/10/26 04:33:43;;;;;;;28.38;19.38;;;9.10;99.90;;;;;;5086416;28;20480;-52
2022/10/26 04:36:08;;;;;;;27.25;20.45;;;9.10;99.90;;;;;;5090644;28;20036;-53
2022/10/26 04:38:34;;;;;;;25.08;19.08;;;9.20;99.90;;;;;;5086556;28;21514;-50
2022/10/26 04:41:00;;;;;;;22.90;17.67;;;9.20;99.90;;;;;;5090867;28;20047;-48
2022/10/26 04:43:25;;;;;;;30.27;19.38;;;9.30;99.90;;;;;;5086765;28;20598;-49
2022/10/26 04:45:57;;;;;;;26.05;19.08;;;9.20;99.90;;;;;;5083100;28;20036;-49
2022/10/26 04:48:23;;;;;;;26.75;19.60;;;9.20;99.90;;;;;;5086388;28;20507;-52
2022/10/26 04:50:49;;;;;;;24.88;18.83;;;9.30;99.90;;;;;;5088217;28;20037;-48
2022/10/26 04:53:15;;;;;;;26.33;18.73;;;9.30;99.90;;;;;;5090153;28;20039;-48
2022/10/26 04:55:41;;;;;;;24.17;18.00;;;9.40;99.90;;;;;;5087714;28;20040;-52
2022/10/26 04:58:06;;;;;;;27.35;18.98;;;9.30;99.90;;;;;;5085978;28;20054;-51
2022/10/26 05:00:33;;;;;;;22.17;17.38;;;9.40;99.90;;;;;;5085030;28;20127;-50
2022/10/26 05:03:00;;;;;;;24.63;18.65;;;9.40;99.90;;;;;;5087087;28;20037;-50
2022/10/26 05:05:25;;;;;;;22.45;18.10;;;9.40;99.90;;;;;;5087997;28;20125;-49
2022/10/26 05:07:55;;;;;;;21.27;16.45;;;9.40;99.90;;;;;;5088173;28;20111;-51
2022/10/26 05:10:21;;;;;;;22.30;18.17;;;9.40;99.90;;;;;;5087362;28;20040;-49
2022/10/26 05:12:54;;;;;;;22.80;17.67;;;9.40;99.90;;;;;;5085947;28;20040;-49
2022/10/26 05:15:20;;;;;;;21.20;17.38;;;9.40;99.90;;;;;;5087782;28;20040;-52
2022/10/26 05:17:46;;;;;;;21.25;16.98;;;9.40;99.90;;;;;;5085984;28;20374;-50
2022/10/26 05:20:12;;;;;;;24.33;17.27;;;9.50;99.90;;;;;;5087199;28;20047;-52
2022/10/26 05:22:39;;;;;;;20.42;16.00;;;9.50;99.90;;;;;;5087184;28;20055;-49
2022/10/26 05:25:05;;;;;;;25.52;16.52;;;9.50;99.90;;;;;;5086547;28;20492;-49
2022/10/26 05:27:31;;;;;;;18.88;16.58;;;9.50;99.90;;;;;;5087462;28;20036;-50
2022/10/26 05:29:56;;;;;;;19.58;15.68;;;9.60;99.90;;;;;;5088364;28;20161;-50
2022/10/26 05:32:22;;;;;;;22.27;16.58;;;9.60;99.90;;;;;;5085239;28;20100;-52
2022/10/26 05:34:47;;;;;;;19.20;15.85;;;9.60;99.90;;;;;;5088304;28;20048;-51
2022/10/26 05:37:13;;;;;;;18.52;15.63;;;9.60;99.90;;;;;;5086873;28;20043;-49
2022/10/26 05:39:39;;;;;;;24.75;16.42;;;9.70;99.90;;;;;;5087053;28;20036;-50
2022/10/26 05:42:04;;;;;;;21.75;15.38;;;9.70;99.90;;;;;;5086921;28;20125;-50
2022/10/26 05:44:30;;;;;;;18.95;15.15;;;9.70;99.90;;;;;;5085496;28;20057;-49
2022/10/26 05:46:55;;;;;;;21.15;15.85;;;9.70;99.90;;;;;;5085787;28;20696;-53
2022/10/26 05:49:21;;;;;;;20.70;15.40;;;9.70;99.90;;;;;;5085096;28;20040;-49
2022/10/26 05:51:46;;;;;;;17.15;15.10;;;9.70;99.90;;;;;;5088772;28;20039;-50
2022/10/26 05:54:12;;;;;;;23.35;15.05;;;9.70;99.90;;;;;;5087390;28;20039;-50
2022/10/26 05:56:39;;;;;;;18.58;14.85;;;9.80;99.90;;;;;;5085303;28;20484;-53
2022/10/26 05:59:15;;;;;;;17.30;14.32;;;9.80;99.90;;;;;;5082359;28;20187;-53
2022/10/26 06:01:49;;;;;;;15.60;13.98;;;9.80;99.90;;;;;;5083464;28;20157;-50
2022/10/26 06:04:37;;;;;;;20.60;14.95;;;9.80;99.90;;;;;;5082265;28;20039;-50
2022/10/26 06:07:07;;;;;;;;;;;9.90;99.90;;;;;;5085782;28;20028;-53
2022/10/26 06:09:33;;;;;;;19.52;14.27;;;9.80;99.90;;;;;;5083469;28;19924;-51
2022/10/26 06:12:00;;;;;;;15.73;13.30;;;10.00;99.90;;;;;;5084619;28;20039;-51
2022/10/26 06:14:26;;;;;;;15.48;13.93;;;9.80;99.90;;;;;;5088654;28;20504;-51
2022/10/26 06:17:28;;;;;;;15.75;13.98;;;9.80;99.90;;;;;;5085008;28;20054;-53
2022/10/26 06:20:01;;;;;;;16.63;13.90;;;9.80;99.90;;;;;;5070126;28;20083;-48
2022/10/26 06:22:45;;;;;;;17.30;14.13;;;9.80;99.90;;;;;;5086807;28;20068;-51
2022/10/26 06:25:26;;;;;;;18.67;13.77;;;9.80;99.90;;;;;;5087807;28;20059;-52
2022/10/26 06:28:13;;;;;;;16.67;12.52;;;9.70;99.90;;;;;;5087553;28;20040;-50
2022/10/26 06:30:40;;;;;;;17.40;13.88;;;9.70;99.90;;;;;;5088268;28;20518;-49
2022/10/26 06:33:09;;;;;;;20.60;13.32;;;9.70;99.90;;;;;;5087223;28;20055;-50
2022/10/26 06:35:39;;;;;;;15.63;13.57;;;9.70;99.90;;;;;;5087052;28;20058;-50
2022/10/26 06:38:19;;;;;;;18.65;13.48;;;9.80;99.90;;;;;;5087976;28;20074;-51
2022/10/26 06:40:48;;;;;;;19.80;14.00;;;9.80;99.90;;;;;;5088422;28;20044;-50
2022/10/26 06:43:29;;;;;;;14.60;12.98;;;9.80;99.90;;;;;;5087025;28;20048;-50
2022/10/26 06:46:26;;;;;;;15.27;13.20;;;9.80;99.90;;;;;;5085991;28;20051;-51
2022/10/26 06:49:26;;;;;;;16.00;13.45;;;9.90;99.90;;;;;;5089093;28;20131;-50
2022/10/26 06:52:10;;;;;;;15.27;12.90;;;10.00;99.90;;;;;;5084928;28;20067;-48
2022/10/26 06:54:53;;;;;;;15.30;12.60;;;10.00;99.90;;;;;;5086994;28;20047;-50
2022/10/26 06:57:23;;;;;;;13.45;12.10;;;10.00;99.90;;;;;;5088743;28;21485;-53
2022/10/26 06:59:59;;;;;;;19.05;13.25;;;10.00;99.90;;;;;;5085505;28;20040;-51
2022/10/26 07:02:25;;;;;;;15.05;11.60;;;10.00;99.90;;;;;;5080491;28;20040;-52
2022/10/26 07:04:51;;;;;;;13.70;12.30;;;10.10;99.90;;;;;;5089691;28;20389;-53
2022/10/26 07:07:22;;;;;;;18.70;11.73;;;10.10;99.90;;;;;;5087781;28;20469;-53
2022/10/26 07:09:48;;;;;;;15.35;13.05;;;10.10;99.90;;;;;;5095766;28;20059;-51
2022/10/26 07:12:14;;;;;;;16.88;11.57;;;10.10;99.90;;;;;;5094349;28;20047;-51
2022/10/26 07:14:39;;;;;;;13.90;11.25;;;10.10;99.90;;;;;;5096241;28;20040;-52
2022/10/26 07:17:05;;;;;;;14.27;11.75;;;10.20;99.90;;;;;;5089667;28;20497;-49
2022/10/26 07:19:31;;;;;;;13.82;12.13;;;10.30;99.90;;;;;;5091478;28;20047;-49
2022/10/26 07:22:00;;;;;;;13.55;10.52;;;10.30;99.90;;;;;;5085048;28;20090;-49
2022/10/26 07:24:27;;;;;;;15.65;11.48;;;10.50;99.90;;;;;;5088640;28;20036;-54
2022/10/26 07:26:54;;;;;;;12.48;10.70;;;10.70;99.90;;;;;;5090212;28;20106;-49
2022/10/26 07:29:20;;;;;;;13.05;10.75;;;10.70;99.90;;;;;;5089497;28;20090;-49
2022/10/26 07:31:45;;;;;;;15.82;10.88;;;10.80;99.90;;;;;;5090318;28;20032;-52
2022/10/26 07:34:11;;;;;;;13.48;10.13;;;10.90;99.90;;;;;;5090499;28;20047;-53
2022/10/26 07:36:37;;;;;;;12.50;10.13;;;11.00;99.90;;;;;;5087431;28;20486;-50
2022/10/26 07:39:03;;;;;;;13.00;9.52;;;11.20;99.90;;;;;;5082911;28;20041;-49
2022/10/26 07:41:29;;;;;;;12.15;8.90;;;11.40;99.90;;;;;;5084808;28;20108;-51
2022/10/26 07:43:54;;;;;;;10.32;8.90;;;11.50;99.90;;;;;;5082518;28;20476;-53
2022/10/26 07:46:20;;;;;;;13.02;9.05;;;11.50;99.90;;;;;;5086845;28;20040;-50
2022/10/26 07:48:46;;;;;;;16.23;9.68;;;11.50;99.90;;;;;;5087901;28;20032;-51
2022/10/26 07:51:12;;;;;;;10.90;9.05;;;11.50;99.90;;;;;;5088741;28;20087;-52
2022/10/26 07:53:37;;;;;;;10.35;9.10;;;11.40;99.90;;;;;;5088197;28;20036;-50
2022/10/26 07:56:03;;;;;;;11.02;8.82;;;11.50;99.90;;;;;;5086193;28;20058;-50
2022/10/26 07:58:29;;;;;;;10.55;8.98;;;11.60;99.90;;;;;;5090809;28;20040;-50
2022/10/26 08:00:55;;;;;;;11.77;8.45;;;11.60;99.90;;;;;;5083501;28;20043;-51
2022/10/26 08:03:21;;;;;;;10.02;8.32;;;11.70;99.90;;;;;;5090381;28;20114;-50
2022/10/26 08:05:50;;;;;;;10.45;8.00;;;11.80;99.90;;;;;;5090220;28;20074;-53
2022/10/26 08:08:18;;;;;;;10.48;8.45;;;11.80;99.90;;;;;;5085681;28;20052;-51
2022/10/26 08:10:45;;;;;;;12.35;8.35;;;11.80;99.90;;;;;;5088707;28;20039;-51
2022/10/26 08:13:11;;;;;;;13.45;8.77;;;11.80;99.90;;;;;;5093973;28;20416;-52
2022/10/26 08:15:38;;;;;;;11.88;7.97;;;11.70;99.90;;;;;;5088057;28;20040;-51
2022/10/26 08:18:04;;;;;;;10.93;8.63;;;11.90;99.90;;;;;;5086360;28;20079;-52
2022/10/26 08:20:30;;;;;;;9.52;8.43;;;12.10;99.90;;;;;;5092936;28;20072;-49
2022/10/26 08:22:56;;;;;;;8.63;7.32;;;12.30;99.90;;;;;;5093331;28;20043;-51
2022/10/26 08:25:22;;;;;;;9.85;7.50;;;12.40;99.90;;;;;;5093838;28;20038;-52
2022/10/26 08:27:48;;;;;;;14.00;7.93;;;12.60;99.90;;;;;;5091782;28;20044;-49
2022/10/26 08:30:13;;;;;;;11.98;7.72;;;12.80;99.90;;;;;;5094168;28;20036;-50
2022/10/26 08:32:41;;;;;;;8.52;6.90;;;13.00;99.90;;;;;;5094827;28;20101;-49
2022/10/26 08:35:07;;;;;;;9.93;6.72;;;13.20;99.90;;;;;;5087765;28;20048;-53
2022/10/26 08:37:33;;;;;;;8.32;6.03;;;13.40;99.90;;;;;;5087974;28;20501;-50
2022/10/26 08:39:59;;;;;;;8.93;5.85;;;13.60;99.90;;;;;;5083997;28;20036;-52
2022/10/26 08:42:31;;;;;;;6.00;5.43;;;13.90;99.90;;;;;;5069352;28;20097;-51
2022/10/26 08:45:11;;;;;;;7.07;5.70;;;14.00;99.90;;;;;;5086929;28;20044;-49
2022/10/26 08:47:45;;;;;;;7.97;5.35;;;14.00;99.90;;;;;;5083736;28;20086;-50
2022/10/26 08:50:20;;;;;;;8.23;5.22;;;14.20;99.90;;;;;;5083039;28;20055;-51
2022/10/26 08:52:54;;;;;;;7.97;5.50;;;14.20;99.90;;;;;;5084567;28;20128;-49
2022/10/26 08:55:31;;;;;;;6.85;5.35;;;14.30;99.90;;;;;;5080555;28;20523;-51
2022/10/26 08:58:00;;;;;;;11.35;5.03;;;14.40;99.90;;;;;;5085200;28;20389;-50
2022/10/26 09:00:27;;;;;;;9.85;5.03;;;14.40;99.90;;;;;;5085857;28;20065;-53
2022/10/26 09:02:53;;;;;;;8.25;4.78;;;14.40;99.90;;;;;;5084368;28;20042;-51
2022/10/26 09:05:41;;;;;;;7.85;4.00;;;14.50;99.90;;;;;;5081406;28;20427;-54
2022/10/26 09:08:34;;;;;;;7.57;4.75;;;14.70;99.90;;;;;;5083277;28;20067;-52
2022/10/26 09:11:24;;;;;;;6.22;4.70;;;14.80;99.90;;;;;;5085662;28;20109;-51
2022/10/26 09:14:27;;;;;;;5.72;4.40;;;14.80;99.90;;;;;;5100826;28;20576;-53
2022/10/26 09:17:16;;;;;;;9.07;4.82;;;15.00;99.90;;;;;;5085095;28;20047;-49
2022/10/26 09:20:02;;;;;;;6.53;4.90;;;15.10;99.90;;;;;;5083927;28;20047;-50
2022/10/26 09:22:55;;;;;;;6.03;4.47;;;15.30;99.90;;;;;;5082764;28;20076;-51
2022/10/26 09:25:22;;;;;;;5.53;4.10;;;15.40;99.90;;;;;;5085761;28;20063;-51
2022/10/26 09:27:56;;;;;;;11.35;4.70;;;15.60;99.90;;;;;;5086130;28;20166;-54
2022/10/26 09:30:22;;;;;;;5.63;3.50;;;15.60;99.90;;;;;;5082826;28;20059;-50
2022/10/26 09:32:52;;;;;;;6.57;3.22;;;15.70;99.90;;;;;;5086484;28;20039;-51
2022/10/26 09:35:48;;;;;;;6.95;2.95;;;15.80;99.90;;;;;;5081592;28;20054;-52
2022/10/26 09:38:31;;;;;;;5.10;2.88;;;16.00;99.90;;;;;;5063320;28;20416;-50
2022/10/26 09:41:19;;;;;;;5.47;3.00;;;16.00;99.90;;;;;;5084582;28;20097;-54
2022/10/26 09:44:02;;;;;;;4.40;2.72;;;16.20;99.90;;;;;;5084848;28;20054;-52
2022/10/26 09:46:36;;;;;;;5.88;2.42;;;16.30;99.90;;;;;;5082454;28;20040;-49
2022/10/26 09:49:09;;;;;;;6.72;2.60;;;16.40;99.90;;;;;;5084448;28;20070;-52
2022/10/26 09:51:37;;;;;;;4.18;2.80;;;16.50;99.90;;;;;;5083977;28;20040;-55
2022/10/26 09:54:15;;;;;;;6.65;2.85;;;16.50;99.90;;;;;;5084045;28;20032;-50
2022/10/26 09:56:44;;;;;;;6.35;2.83;;;16.60;99.90;;;;;;5083796;28;20040;-54
2022/10/26 09:59:10;;;;;;;4.95;3.08;;;16.70;99.90;;;;;;5082358;28;20048;-50
2022/10/26 10:01:36;;;;;;;5.70;2.88;;;16.80;99.90;;;;;;5085379;28;20051;-50
2022/10/26 10:04:11;;;;;;;8.13;3.17;;;16.90;99.90;;;;;;5085699;28;20045;-52
2022/10/26 10:06:40;;;;;;;7.95;2.75;;;16.90;99.90;;;;;;5083590;28;20173;-50
2022/10/26 10:09:21;;;;;;;4.25;2.78;;;17.00;99.90;;;;;;5083879;28;20392;-50
2022/10/26 10:11:56;;;;;;;6.50;3.10;;;17.20;99.90;;;;;;5083048;28;20113;-51
2022/10/26 10:14:27;;;;;;;5.10;2.92;;;17.20;99.90;;;;;;5086421;28;20048;-50
2022/10/26 10:17:03;;;;;;;6.22;2.85;;;17.40;99.90;;;;;;5085433;28;20477;-52
2022/10/26 10:19:30;;;;;;;8.70;3.20;;;17.50;99.90;;;;;;5084664;28;20109;-49
2022/10/26 10:21:58;;;;;;;5.47;2.80;;;17.60;99.90;;;;;;5086294;28;20040;-51
2022/10/26 10:24:35;;;;;;;7.53;3.30;;;17.70;99.90;;;;;;5082670;28;20036;-53
2022/10/26 10:27:15;;;;;;;6.38;3.00;;;17.70;99.90;;;;;;5083499;28;20056;-50
2022/10/26 10:29:43;;;;;;;6.05;3.03;;;17.70;99.90;;;;;;5085427;28;20082;-51
2022/10/26 10:32:21;;;;;;;6.55;3.03;;;17.70;99.90;;;;;;5083616;28;20469;-52
2022/10/26 10:34:49;;;;;;;5.57;2.88;;;17.70;99.90;;;;;;5082474;28;20696;-52
2022/10/26 10:37:49;;;;;;;6.32;2.70;;;17.80;99.90;;;;;;5083609;28;20039;-54
2022/10/26 10:40:24;;;;;;;8.38;3.03;;;17.80;99.90;;;;;;5053558;28;20048;-50
2022/10/26 10:42:51;;;;;;;5.57;2.50;;;17.90;99.90;;;;;;5084567;28;20072;-51
2022/10/26 10:45:27;;;;;;;5.22;3.00;;;17.90;99.90;;;;;;5084410;28;20048;-50
2022/10/26 10:48:28;;;;;;;8.10;3.30;;;18.00;99.90;;;;;;5081158;28;20547;-50
2022/10/26 10:50:54;;;;;;;5.20;2.72;;;18.00;99.90;;;;;;5086248;28;20044;-51
2022/10/26 10:53:23;;;;;;;7.88;3.10;;;18.10;99.90;;;;;;5084018;28;20070;-52
2022/10/26 10:56:18;;;;;;;6.35;2.80;;;18.20;99.90;;;;;;5081844;28;20079;-51
2022/10/26 10:58:56;;;;;;;6.85;2.83;;;18.20;99.90;;;;;;5082599;28;20408;-49
2022/10/26 11:01:25;;;;;;;7.45;3.00;;;18.30;99.90;;;;;;5084443;28;20169;-52
2022/10/26 11:04:01;;;;;;;5.85;2.70;;;18.30;99.90;;;;;;5081804;28;20079;-53
2022/10/26 11:06:28;;;;;;;7.97;2.92;;;18.30;99.90;;;;;;5075530;28;20505;-53
2022/10/26 11:09:08;;;;;;;6.07;2.90;;;18.50;99.90;;;;;;5081070;28;20068;-52
2022/10/26 11:11:39;;;;;;;6.80;2.65;;;18.60;99.90;;;;;;5084932;28;20032;-53
2022/10/26 11:14:11;;;;;;;7.13;2.70;;;18.70;99.90;;;;;;5088069;28;20086;-52
2022/10/26 11:16:48;;;;;;;6.57;2.60;;;18.80;99.90;;;;;;5085043;28;20047;-50
2022/10/26 11:19:31;;;;;;;3.97;2.60;;;18.80;99.90;;;;;;5085984;28;20067;-53
2022/10/26 11:21:57;;;;;;;5.93;2.97;;;18.90;99.90;;;;;;5086162;28;20089;-53
2022/10/26 11:24:43;;;;;;;8.05;2.97;;;18.90;99.90;;;;;;5085754;28;20040;-52
2022/10/26 11:27:28;;;;;;;7.18;2.78;;;18.90;99.90;;;;;;5088340;28;20036;-52
2022/10/26 11:30:13;;;;;;;;;;;19.00;99.90;;;;;;5085148;28;21448;-54
2022/10/26 11:32:45;;;;;;;6.70;2.55;;;19.00;99.90;;;;;;5086631;28;19981;-53
2022/10/26 11:35:14;;;;;;;4.68;2.63;;;19.00;99.90;;;;;;5083521;28;20463;-51
2022/10/26 11:38:08;;;;;;;8.68;2.90;;;19.00;99.90;;;;;;5085638;28;20039;-54
2022/10/26 11:40:52;;;;;;;7.55;2.42;;;19.00;99.90;;;;;;5087260;28;20048;-54
2022/10/26 11:43:34;;;;;;;6.60;2.55;;;18.90;99.90;;;;;;5083968;28;20054;-54
2022/10/26 11:46:10;;;;;;;5.22;2.90;;;18.80;99.90;;;;;;5085885;28;20511;-52
2022/10/26 11:48:53;;;;;;;5.72;3.22;;;18.80;99.90;;;;;;5079839;28;20048;-53
2022/10/26 11:51:40;;;;;;;6.85;2.90;;;18.90;99.90;;;;;;5086197;28;20040;-54
2022/10/26 11:54:20;;;;;;;7.55;3.05;;;18.90;99.90;;;;;;5087965;28;20044;-53
2022/10/26 11:56:48;;;;;;;7.72;3.00;;;19.00;99.90;;;;;;5085443;28;20402;-55
2022/10/26 11:59:23;;;;;;;5.43;3.42;;;19.00;99.90;;;;;;5086464;28;20060;-50
2022/10/26 12:01:53;;;;;;;7.00;2.60;;;19.10;99.90;;;;;;5085458;28;20488;-51
2022/10/26 12:04:22;;;;;;;5.97;3.60;;;19.20;99.90;;;;;;5079801;28;20048;-51
2022/10/26 12:06:50;;;;;;;7.40;3.50;;;19.20;99.90;;;;;;5079926;28;20059;-49
2022/10/26 12:09:18;;;;;;;;;;;19.10;99.90;;;;;;5084917;28;20089;-54
2022/10/26 12:11:55;;;;;;;6.63;3.35;;;19.20;99.90;;;;;;5081931;28;19931;-51
2022/10/26 12:14:35;;;;;;;8.95;3.03;;;19.20;99.90;;;;;;5084672;28;20438;-51
2022/10/26 12:17:20;;;;;;;6.53;2.70;;;19.20;99.90;;;;;;5085214;28;20049;-53
2022/10/26 12:20:07;;;;;;;6.57;2.95;;;19.10;99.90;;;;;;5085392;28;20191;-52
2022/10/26 12:22:38;;;;;;;7.65;3.38;;;19.00;99.90;;;;;;5084306;28;20488;-52
2022/10/26 12:25:24;;;;;;;9.02;2.80;;;19.20;99.90;;;;;;5083205;28;20039;-50
2022/10/26 12:27:52;;;;;;;8.00;3.10;;;19.30;99.90;;;;;;5084592;28;21151;-52
2022/10/26 12:30:18;;;;;;;4.35;2.85;;;19.40;99.90;;;;;;5087285;28;20453;-49
2022/10/26 12:32:43;;;;;;;7.53;3.13;;;19.40;99.90;;;;;;5087456;28;20032;-50
2022/10/26 12:35:37;;;;;;;6.20;2.50;;;19.40;99.90;;;;;;5064102;28;20044;-52
2022/10/26 12:38:24;;;;;;;7.70;3.05;;;19.40;99.90;;;;;;5080321;28;20064;-50
2022/10/26 12:41:05;;;;;;;6.93;2.85;;;19.40;99.90;;;;;;5086979;28;20126;-48
2022/10/26 12:43:40;;;;;;;6.78;3.30;;;19.30;99.90;;;;;;5086853;28;20119;-55
2022/10/26 12:46:11;;;;;;;10.63;3.45;;;19.40;99.90;;;;;;5082813;28;20044;-51
2022/10/26 12:48:41;;;;;;;9.10;3.05;;;19.40;99.90;;;;;;5083043;28;20550;-52
2022/10/26 12:51:20;;;;;;;7.20;3.10;;;19.30;99.90;;;;;;5086461;28;20051;-48
2022/10/26 12:54:09;;;;;;;6.40;3.20;;;19.40;99.90;;;;;;5084086;28;20056;-48
2022/10/26 12:56:56;;;;;;;5.90;3.08;;;19.40;99.90;;;;;;5074321;28;20058;-51
2022/10/26 12:59:47;;;;;;;9.23;3.20;;;19.50;99.90;;;;;;5083217;28;20049;-48
2022/10/26 13:02:50;;;;;;;6.82;2.95;;;19.40;99.90;;;;;;5084317;28;20051;-50
2022/10/26 13:05:19;;;;;;;7.22;3.10;;;19.50;99.90;;;;;;5083920;28;20570;-48